createdAt,value
2023-04-13T00:02:11.112Z,95150.00
2023-04-13T00:06:22.166Z,95153.00
2023-04-13T00:10:26.365Z,95155.00
2023-04-13T00:14:34.167Z,95143.00
2023-04-13T00:18:36.930Z,95147.00
2023-04-13T00:22:40.062Z,95136.00
2023-04-13T00:26:44.924Z,95136.00
2023-04-13T00:30:47.741Z,95121.00
2023-04-13T00:34:51.353Z,95121.00
2023-04-13T00:38:57.359Z,95128.00
2023-04-13T00:43:02.417Z,95132.00
2023-04-13T00:47:05.994Z,95130.00
2023-04-13T00:51:22.870Z,95125.00
2023-04-13T00:55:30.203Z,95127.00
2023-04-13T00:59:39.225Z,95127.00
2023-04-13T01:03:42.732Z,95116.00
2023-04-13T01:07:55.520Z,95132.00
2023-04-13T01:12:05.062Z,95139.00
2023-04-13T01:16:19.345Z,95144.00
2023-04-13T01:20:25.773Z,95156.00
2023-04-13T01:24:39.156Z,95140.00
2023-04-13T01:28:47.695Z,95138.00
2023-04-13T01:32:52.480Z,95143.00
2023-04-13T01:36:56.872Z,95144.00
2023-04-13T01:41:01.898Z,95152.00
2023-04-13T01:45:10.524Z,95155.00
2023-04-13T01:49:18.853Z,95149.00
2023-04-13T01:53:29.546Z,95168.00
2023-04-13T01:57:33.087Z,95187.00
2023-04-13T02:01:38.518Z,95192.00
2023-04-13T02:05:41.687Z,95184.00
2023-04-13T02:09:45.467Z,95192.00
2023-04-13T02:13:48.485Z,95177.00
2023-04-13T02:17:55.517Z,95167.00
2023-04-13T02:21:58.308Z,95160.00
2023-04-13T02:26:02.883Z,95162.00
2023-04-13T02:30:07.637Z,95169.00
2023-04-13T02:34:18.848Z,95164.00
2023-04-13T02:38:21.860Z,95170.00
2023-04-13T02:42:25.104Z,95165.00
2023-04-13T02:46:32.829Z,95155.00
2023-04-13T02:50:38.502Z,95158.00
2023-04-13T02:54:43.294Z,95168.00
2023-04-13T02:58:48.141Z,95171.00
2023-04-13T03:02:54.774Z,95189.00
2023-04-13T03:06:59.373Z,95189.00
2023-04-13T03:11:04.204Z,95181.00
2023-04-13T03:15:11.433Z,95194.00
2023-04-13T03:19:19.666Z,95207.00
2023-04-13T03:23:23.982Z,95201.00
2023-04-13T03:27:26.751Z,95216.00
2023-04-13T03:31:32.906Z,95216.00
2023-04-13T03:35:41.425Z,95221.00
2023-04-13T03:39:48.771Z,95219.00
2023-04-13T03:43:51.826Z,95218.00
2023-04-13T03:47:54.727Z,95222.00
2023-04-13T03:51:58.925Z,95222.00
2023-04-13T03:56:03.138Z,95231.00
2023-04-13T04:00:16.177Z,95243.00
2023-04-13T04:04:19.129Z,95226.00
2023-04-13T04:08:27.788Z,95227.00
2023-04-13T04:12:34.349Z,95221.00
2023-04-13T04:16:39.505Z,95217.00
2023-04-13T04:20:45.072Z,95216.00
2023-04-13T04:24:47.855Z,95215.00
2023-04-13T04:29:01.873Z,95215.00
2023-04-13T04:33:17.859Z,95213.00
2023-04-13T04:37:24.402Z,95208.00
2023-04-13T04:41:31.464Z,95213.00
2023-04-13T04:45:36.410Z,95214.00
2023-04-13T04:49:39.887Z,95231.00
2023-04-13T04:53:45.808Z,95226.00
2023-04-13T04:57:50.687Z,95238.00
2023-04-13T05:01:56.426Z,95245.00
2023-04-13T05:05:59.252Z,95235.00
2023-04-13T05:10:08.972Z,95241.00
2023-04-13T05:14:15.656Z,95247.00
2023-04-13T05:18:19.809Z,95241.00
2023-04-13T05:22:22.748Z,95234.00
2023-04-13T05:26:28.806Z,95243.00
2023-04-13T05:30:32.810Z,95247.00
2023-04-13T05:34:39.202Z,95256.00
2023-04-13T05:38:44.055Z,95259.00
2023-04-13T05:42:47.781Z,95248.00
2023-04-13T05:46:51.593Z,95249.00
2023-04-13T05:51:01.368Z,95236.00
2023-04-13T05:55:06.963Z,95247.00
2023-04-13T05:59:11.876Z,95254.00
2023-04-13T06:03:17.209Z,95272.00
2023-04-13T06:07:22.086Z,95272.00
2023-04-13T06:11:26.316Z,95270.00
2023-04-13T06:15:29.242Z,95281.00
2023-04-13T06:19:32.024Z,95270.00
2023-04-13T06:23:37.841Z,95279.00
2023-04-13T06:27:43.375Z,95272.00
2023-04-13T06:31:49.008Z,95273.00
2023-04-13T06:35:52.164Z,95271.00
2023-04-13T06:39:59.128Z,95274.00
2023-04-13T06:44:06.032Z,95287.00
2023-04-13T06:48:08.853Z,95292.00
2023-04-13T06:52:11.626Z,95293.00
2023-04-13T06:56:18.069Z,95304.00
2023-04-13T07:00:30.132Z,95306.00
2023-04-13T07:04:34.909Z,95314.00
2023-04-13T07:08:37.748Z,95301.00
2023-04-13T07:12:44.112Z,95310.00
2023-04-13T07:16:46.878Z,95307.00
2023-04-13T07:20:52.620Z,95313.00
2023-04-13T07:24:57.235Z,95312.00
2023-04-13T07:29:01.663Z,95318.00
2023-04-13T07:33:07.627Z,95306.00
2023-04-13T07:37:10.472Z,95318.00
2023-04-13T07:41:13.241Z,95319.00
2023-04-13T07:45:18.040Z,95313.00
2023-04-13T07:49:24.738Z,95321.00
2023-04-13T07:53:31.623Z,95312.00
2023-04-13T07:57:34.481Z,95313.00
2023-04-13T08:01:39.273Z,95314.00
2023-04-13T08:05:43.024Z,95319.00
2023-04-13T08:10:00.539Z,95314.00
2023-04-13T08:14:05.917Z,95314.00
2023-04-13T08:18:10.108Z,95319.00
2023-04-13T08:22:15.516Z,95310.00
2023-04-13T08:26:19.550Z,95326.00
2023-04-13T08:30:36.761Z,95306.00
2023-04-13T08:34:43.954Z,95318.00
2023-04-13T08:38:46.931Z,95320.00
2023-04-13T08:42:49.995Z,95307.00
2023-04-13T08:46:53.851Z,95307.00
2023-04-13T08:51:00.126Z,95295.00
2023-04-13T08:55:08.691Z,95290.00
2023-04-13T08:59:16.436Z,95297.00
2023-04-13T09:03:30.828Z,95315.00
2023-04-13T09:07:40.042Z,95308.00
2023-04-13T09:11:50.889Z,95299.00
2023-04-13T09:15:56.670Z,95296.00
2023-04-13T09:20:12.827Z,95322.00
2023-04-13T09:24:18.283Z,95311.00
2023-04-13T09:28:26.609Z,95307.00
2023-04-13T09:32:29.824Z,95304.00
2023-04-13T09:36:34.994Z,95312.00
2023-04-13T09:40:50.546Z,95306.00
2023-04-13T09:44:58.023Z,95313.00
2023-04-13T09:49:05.267Z,95308.00
2023-04-13T09:53:11.617Z,95315.00
2023-04-13T09:57:24.607Z,95315.00
2023-04-13T10:01:30.191Z,95319.00
2023-04-13T10:05:51.077Z,95315.00
2023-04-13T10:10:00.676Z,95323.00
2023-04-13T10:14:09.862Z,95309.00
2023-04-13T10:18:25.939Z,95313.00
2023-04-13T10:22:32.833Z,95316.00
2023-04-13T10:26:39.492Z,95311.00
2023-04-13T10:30:53.580Z,95310.00
2023-04-13T10:34:57.153Z,95310.00
2023-04-13T10:39:00.391Z,95303.00
2023-04-13T10:43:09.335Z,95305.00
2023-04-13T10:47:14.666Z,95304.00
2023-04-13T10:51:18.240Z,95299.00
2023-04-13T10:55:24.954Z,95294.00
2023-04-13T10:59:56.116Z,95293.00
2023-04-13T11:04:09.833Z,95283.00
2023-04-13T11:08:20.822Z,95299.00
2023-04-13T11:12:31.347Z,95281.00
2023-04-13T11:16:45.202Z,95284.00
2023-04-13T11:20:50.835Z,95284.00
2023-04-13T11:24:53.916Z,95283.00
2023-04-13T11:29:00.187Z,95280.00
2023-04-13T11:33:03.992Z,95293.00
2023-04-13T11:37:08.485Z,95293.00
2023-04-13T11:41:16.778Z,95293.00
2023-04-13T11:45:23.726Z,95288.00
2023-04-13T11:49:32.389Z,95286.00
2023-04-13T11:53:38.815Z,95297.00
2023-04-13T11:57:42.193Z,95282.00
2023-04-13T12:02:01.551Z,95293.00
2023-04-13T12:06:09.166Z,95279.00
2023-04-13T12:10:25.214Z,95291.00
2023-04-13T12:14:54.129Z,95291.00
2023-04-13T12:18:57.526Z,95298.00
2023-04-13T12:23:15.644Z,95297.00
2023-04-13T12:27:31.058Z,95305.00
2023-04-13T12:31:35.995Z,95300.00
2023-04-13T12:35:41.825Z,95297.00
2023-04-13T12:39:46.723Z,95291.00
2023-04-13T12:43:55.604Z,95295.00
2023-04-13T12:47:58.636Z,95298.00
2023-04-13T12:52:03.040Z,95299.00
2023-04-13T12:56:07.947Z,95303.00
2023-04-13T13:00:15.907Z,95312.00
2023-04-13T13:04:19.100Z,95304.00
2023-04-13T13:08:22.351Z,95307.00
2023-04-13T13:12:30.109Z,95305.00
2023-04-13T13:16:39.321Z,95311.00
2023-04-13T13:20:47.329Z,95313.00
2023-04-13T13:24:53.112Z,95329.00
2023-04-13T13:28:59.184Z,95309.00
2023-04-13T13:33:07.026Z,95312.00
2023-04-13T13:37:10.243Z,95310.00
2023-04-13T13:41:19.222Z,95315.00
2023-04-13T13:45:22.851Z,95323.00
2023-04-13T13:49:28.429Z,95333.00
2023-04-13T13:53:34.357Z,95330.00
2023-04-13T13:57:40.549Z,95337.00
2023-04-13T14:01:44.069Z,95332.00
2023-04-13T14:05:53.012Z,95324.00
2023-04-13T14:09:59.284Z,95314.00
2023-04-13T14:14:10.890Z,95311.00
2023-04-13T14:18:23.697Z,95314.00
2023-04-13T14:22:28.162Z,95320.00
2023-04-13T14:26:31.292Z,95316.00
2023-04-13T14:30:34.663Z,95311.00
2023-04-13T14:34:37.680Z,95319.00
2023-04-13T14:38:44.970Z,95312.00
2023-04-13T14:42:48.229Z,95320.00
2023-04-13T14:46:52.039Z,95318.00
2023-04-13T14:50:55.714Z,95311.00
2023-04-13T14:55:00.574Z,95299.00
2023-04-13T14:59:03.799Z,95295.00
2023-04-13T15:03:08.307Z,95302.00
2023-04-13T15:07:12.311Z,95300.00
2023-04-13T15:11:16.709Z,95301.00
2023-04-13T15:15:19.919Z,95307.00
2023-04-13T15:19:31.306Z,95312.00
2023-04-13T15:23:36.648Z,95325.00
2023-04-13T15:27:42.410Z,95320.00
2023-04-13T15:31:47.761Z,95328.00
2023-04-13T15:35:53.695Z,95325.00
2023-04-13T15:39:59.564Z,95307.00
2023-04-13T15:44:08.572Z,95299.00
2023-04-13T15:48:13.511Z,95294.00
2023-04-13T15:52:19.240Z,95295.00
2023-04-13T15:56:30.436Z,95309.00
2023-04-13T16:00:35.401Z,95319.00
2023-04-13T16:04:41.499Z,95316.00
2023-04-13T16:08:45.160Z,95323.00
2023-04-13T16:12:50.351Z,95331.00
2023-04-13T16:16:59.866Z,95347.00
2023-04-13T16:21:05.105Z,95359.00
2023-04-13T16:25:10.298Z,95357.00
2023-04-13T16:29:17.031Z,95353.00
2023-04-13T16:33:24.382Z,95355.00
2023-04-13T16:37:30.114Z,95359.00
2023-04-13T16:41:33.209Z,95356.00
2023-04-13T16:45:41.290Z,95354.00
2023-04-13T16:49:49.095Z,95358.00
2023-04-13T16:53:53.496Z,95362.00
2023-04-13T16:57:57.426Z,95362.00
2023-04-13T17:02:06.243Z,95358.00
2023-04-13T17:06:14.822Z,95356.00
2023-04-13T17:10:20.745Z,95355.00
2023-04-13T17:14:32.317Z,95367.00
2023-04-13T17:18:35.474Z,95363.00
2023-04-13T17:22:40.121Z,95360.00
2023-04-13T17:26:43.684Z,95371.00
2023-04-13T17:30:46.761Z,95386.00
2023-04-13T17:34:49.860Z,95392.00
2023-04-13T17:38:54.291Z,95388.00
2023-04-13T17:43:00.272Z,95395.00
2023-04-13T17:47:06.293Z,95391.00
2023-04-13T17:51:11.696Z,95384.00
2023-04-13T17:55:17.486Z,95384.00
2023-04-13T17:59:23.586Z,95394.00
2023-04-13T18:03:27.325Z,95395.00
2023-04-13T18:07:32.153Z,95396.00
2023-04-13T18:11:37.176Z,95390.00
2023-04-13T18:15:50.396Z,95405.00
2023-04-13T18:19:53.991Z,95404.00
2023-04-13T18:23:59.519Z,95401.00
2023-04-13T18:28:04.825Z,95395.00
2023-04-13T18:32:09.789Z,95403.00
2023-04-13T18:36:16.064Z,95389.00
2023-04-13T18:40:19.616Z,95394.00
2023-04-13T18:44:29.010Z,95401.00
2023-04-13T18:48:37.063Z,95396.00
2023-04-13T18:52:41.062Z,95400.00
2023-04-13T18:56:45.420Z,95402.00
2023-04-13T19:01:01.341Z,95399.00
2023-04-13T19:05:05.669Z,95405.00
2023-04-13T19:09:11.711Z,95396.00
2023-04-13T19:13:18.018Z,95410.00
2023-04-13T19:17:27.171Z,95396.00
2023-04-13T19:21:31.987Z,95398.00
2023-04-13T19:25:35.871Z,95405.00
2023-04-13T19:29:41.251Z,95405.00
2023-04-13T19:33:48.720Z,95401.00
2023-04-13T19:37:54.680Z,95404.00
2023-04-13T19:42:04.632Z,95400.00
2023-04-13T19:46:08.103Z,95390.00
2023-04-13T19:50:15.180Z,95396.00
2023-04-13T19:54:20.847Z,95394.00
2023-04-13T19:58:27.239Z,95402.00
2023-04-13T20:02:33.245Z,95404.00
2023-04-13T20:06:38.046Z,95404.00
2023-04-13T20:10:41.107Z,95419.00
2023-04-13T20:14:46.342Z,95417.00
2023-04-13T20:18:52.700Z,95413.00
2023-04-13T20:22:59.858Z,95403.00
2023-04-13T20:27:03.720Z,95391.00
2023-04-13T20:31:07.035Z,95387.00
2023-04-13T20:35:12.776Z,95387.00
2023-04-13T20:39:22.052Z,95390.00
2023-04-13T20:43:25.459Z,95368.00
2023-04-13T20:47:33.972Z,95370.00
2023-04-13T20:51:39.782Z,95375.00
2023-04-13T20:55:48.982Z,95377.00
2023-04-13T20:59:59.010Z,95378.00
2023-04-13T21:04:04.601Z,95373.00
2023-04-13T21:08:11.142Z,95368.00
2023-04-13T21:12:17.041Z,95368.00
2023-04-13T21:16:21.995Z,95370.00
2023-04-13T21:20:26.078Z,95383.00
2023-04-13T21:24:32.744Z,95380.00
2023-04-13T21:28:43.833Z,95392.00
2023-04-13T21:32:49.252Z,95395.00
2023-04-13T21:36:52.375Z,95393.00
2023-04-13T21:40:55.955Z,95399.00
2023-04-13T21:45:00.558Z,95395.00
2023-04-13T21:49:06.241Z,95390.00
2023-04-13T21:53:09.682Z,95387.00
2023-04-13T21:57:15.976Z,95386.00
2023-04-13T22:01:26.486Z,95381.00
2023-04-13T22:05:29.772Z,95378.00
2023-04-13T22:09:34.477Z,95370.00
2023-04-13T22:13:44.129Z,95372.00
2023-04-13T22:17:48.842Z,95367.00
2023-04-13T22:21:52.166Z,95364.00
2023-04-13T22:25:58.898Z,95365.00
2023-04-13T22:30:04.244Z,95362.00
2023-04-13T22:34:11.948Z,95353.00
2023-04-13T22:38:17.305Z,95354.00
2023-04-13T22:42:20.492Z,95344.00
2023-04-13T22:46:24.031Z,95344.00
2023-04-13T22:50:28.895Z,95347.00
2023-04-13T22:54:32.705Z,95343.00
2023-04-13T22:58:35.710Z,95335.00
2023-04-13T23:02:39.161Z,95348.00
2023-04-13T23:06:46.682Z,95343.00
2023-04-13T23:10:49.938Z,95344.00
2023-04-13T23:14:53.350Z,95350.00
2023-04-13T23:19:00.350Z,95350.00
2023-04-13T23:23:05.132Z,95349.00
2023-04-13T23:27:11.291Z,95358.00
2023-04-13T23:31:14.679Z,95356.00
2023-04-13T23:35:19.784Z,95361.00
2023-04-13T23:39:24.225Z,95361.00
2023-04-13T23:43:27.639Z,95358.00
2023-04-13T23:47:34.050Z,95347.00
2023-04-13T23:51:39.600Z,95354.00
2023-04-13T23:55:44.134Z,95360.00
2023-04-13T23:59:50.496Z,95358.00
